sensor_id;sensor_type;location;lat;lon;timestamp;pressure;altitude;pressure_sealevel;temperature;humidity
79004;BME280;68369;51.050;17.018;2023-04-28T00:04:29;100668.31;;;5.69;65.59
79004;BME280;68369;51.050;17.018;2023-04-28T00:07:16;100663.42;;;5.71;65.51
79004;BME280;68369;51.050;17.018;2023-04-28T00:10:02;100661.00;;;5.71;65.40
79004;BME280;68369;51.050;17.018;2023-04-28T00:12:47;100659.77;;;5.72;65.58
79004;BME280;68369;51.050;17.018;2023-04-28T00:21:42;100658.11;;;5.78;65.57
79004;BME280;68369;51.050;17.018;2023-04-28T00:24:29;100653.29;;;5.85;65.71
79004;BME280;68369;51.050;17.018;2023-04-28T00:30:02;100646.83;;;5.99;65.84
79004;BME280;68369;51.050;17.018;2023-04-28T00:33:09;100642.06;;;6.02;65.75
79004;BME280;68369;51.050;17.018;2023-04-28T00:36:00;100643.73;;;6.06;65.56
79004;BME280;68369;51.050;17.018;2023-04-28T00:38:45;100646.48;;;6.07;65.70
79004;BME280;68369;51.050;17.018;2023-04-28T00:41:30;100649.08;;;6.08;65.56
79004;BME280;68369;51.050;17.018;2023-04-28T00:44:15;100650.79;;;6.10;65.73
79004;BME280;68369;51.050;17.018;2023-04-28T00:47:01;100647.99;;;6.10;65.61
79004;BME280;68369;51.050;17.018;2023-04-28T00:53:01;100643.98;;;6.12;65.70
79004;BME280;68369;51.050;17.018;2023-04-28T00:55:48;100639.63;;;6.11;65.66
79004;BME280;68369;51.050;17.018;2023-04-28T00:58:34;100637.73;;;6.12;65.90
79004;BME280;68369;51.050;17.018;2023-04-28T01:04:35;100634.26;;;6.10;65.77
79004;BME280;68369;51.050;17.018;2023-04-28T01:19:31;100622.08;;;6.30;65.33
79004;BME280;68369;51.050;17.018;2023-04-28T01:32:08;100616.15;;;6.30;65.12
79004;BME280;68369;51.050;17.018;2023-04-28T01:34:55;100606.52;;;6.25;64.84
79004;BME280;68369;51.050;17.018;2023-04-28T01:37:41;100608.06;;;6.26;64.65
79004;BME280;68369;51.050;17.018;2023-04-28T01:40:27;100601.66;;;6.25;64.46
79004;BME280;68369;51.050;17.018;2023-04-28T01:45:57;100605.19;;;6.22;64.01
79004;BME280;68369;51.050;17.018;2023-04-28T01:51:51;100602.63;;;6.19;64.07
79004;BME280;68369;51.050;17.018;2023-04-28T01:54:37;100604.39;;;6.18;64.24
79004;BME280;68369;51.050;17.018;2023-04-28T01:57:22;100606.50;;;6.17;64.28
79004;BME280;68369;51.050;17.018;2023-04-28T02:00:09;100605.48;;;6.15;64.15
79004;BME280;68369;51.050;17.018;2023-04-28T02:06:00;100601.87;;;6.14;64.06
79004;BME280;68369;51.050;17.018;2023-04-28T02:08:47;100600.76;;;6.18;64.06
79004;BME280;68369;51.050;17.018;2023-04-28T02:11:34;100598.73;;;6.23;63.75
79004;BME280;68369;51.050;17.018;2023-04-28T02:14:19;100596.59;;;6.26;63.85
79004;BME280;68369;51.050;17.018;2023-04-28T02:17:04;100601.27;;;6.27;63.69
79004;BME280;68369;51.050;17.018;2023-04-28T02:23:11;100593.34;;;6.23;63.87
79004;BME280;68369;51.050;17.018;2023-04-28T02:26:01;100590.77;;;6.21;64.07
79004;BME280;68369;51.050;17.018;2023-04-28T02:28:48;100593.42;;;6.19;63.93
79004;BME280;68369;51.050;17.018;2023-04-28T02:31:35;100597.31;;;6.16;63.99
79004;BME280;68369;51.050;17.018;2023-04-28T02:34:21;100590.27;;;6.12;64.13
79004;BME280;68369;51.050;17.018;2023-04-28T02:37:07;100586.32;;;6.09;64.34
79004;BME280;68369;51.050;17.018;2023-04-28T02:39:53;100585.83;;;6.07;64.49
79004;BME280;68369;51.050;17.018;2023-04-28T02:42:38;100577.21;;;6.03;64.55
79004;BME280;68369;51.050;17.018;2023-04-28T02:45:23;100582.14;;;6.00;64.54
79004;BME280;68369;51.050;17.018;2023-04-28T02:48:08;100583.36;;;6.00;64.86
79004;BME280;68369;51.050;17.018;2023-04-28T02:53:47;100575.11;;;5.96;64.92
79004;BME280;68369;51.050;17.018;2023-04-28T02:56:33;100573.19;;;5.96;64.89
79004;BME280;68369;51.050;17.018;2023-04-28T02:59:19;100577.34;;;5.97;64.76
79004;BME280;68369;51.050;17.018;2023-04-28T03:02:05;100578.32;;;6.00;64.70
79004;BME280;68369;51.050;17.018;2023-04-28T03:04:50;100578.82;;;6.02;64.85
79004;BME280;68369;51.050;17.018;2023-04-28T03:07:35;100582.65;;;6.01;64.69
79004;BME280;68369;51.050;17.018;2023-04-28T03:10:21;100583.74;;;5.99;64.74
79004;BME280;68369;51.050;17.018;2023-04-28T03:13:06;100585.89;;;5.96;64.85
79004;BME280;68369;51.050;17.018;2023-04-28T03:15:59;100588.17;;;5.93;65.13
79004;BME280;68369;51.050;17.018;2023-04-28T03:18:45;100588.95;;;5.87;65.15
79004;BME280;68369;51.050;17.018;2023-04-28T03:21:31;100590.88;;;5.77;65.38
79004;BME280;68369;51.050;17.018;2023-04-28T03:24:17;100589.61;;;5.60;65.82
79004;BME280;68369;51.050;17.018;2023-04-28T03:27:02;100588.23;;;5.49;66.12
79004;BME280;68369;51.050;17.018;2023-04-28T03:29:48;100579.82;;;5.44;66.18
79004;BME280;68369;51.050;17.018;2023-04-28T03:32:33;100579.55;;;5.39;66.36
79004;BME280;68369;51.050;17.018;2023-04-28T03:35:18;100580.50;;;5.35;66.37
79004;BME280;68369;51.050;17.018;2023-04-28T03:38:03;100577.58;;;5.34;66.44
79004;BME280;68369;51.050;17.018;2023-04-28T03:40:48;100578.75;;;5.35;66.54
79004;BME280;68369;51.050;17.018;2023-04-28T03:43:34;100574.54;;;5.38;66.58
79004;BME280;68369;51.050;17.018;2023-04-28T03:46:21;100573.13;;;5.39;66.45
79004;BME280;68369;51.050;17.018;2023-04-28T03:49:06;100568.62;;;5.39;66.43
79004;BME280;68369;51.050;17.018;2023-04-28T03:51:51;100570.20;;;5.38;66.60
79004;BME280;68369;51.050;17.018;2023-04-28T03:54:36;100569.53;;;5.36;66.57
79004;BME280;68369;51.050;17.018;2023-04-28T03:57:22;100570.60;;;5.35;66.60
79004;BME280;68369;51.050;17.018;2023-04-28T04:00:07;100575.81;;;5.34;66.49
79004;BME280;68369;51.050;17.018;2023-04-28T04:02:53;100577.23;;;5.33;66.71
79004;BME280;68369;51.050;17.018;2023-04-28T04:05:39;100580.86;;;5.33;66.76
79004;BME280;68369;51.050;17.018;2023-04-28T04:08:25;100577.22;;;5.33;66.59
79004;BME280;68369;51.050;17.018;2023-04-28T04:11:10;100576.16;;;5.34;66.66
79004;BME280;68369;51.050;17.018;2023-04-28T04:13:58;100573.74;;;5.34;66.58
79004;BME280;68369;51.050;17.018;2023-04-28T04:16:44;100573.26;;;5.33;66.59
79004;BME280;68369;51.050;17.018;2023-04-28T04:19:30;100573.72;;;5.35;66.63
79004;BME280;68369;51.050;17.018;2023-04-28T04:22:15;100571.60;;;5.38;66.48
79004;BME280;68369;51.050;17.018;2023-04-28T04:25:00;100573.27;;;5.41;66.47
79004;BME280;68369;51.050;17.018;2023-04-28T04:27:48;100568.51;;;5.46;66.52
79004;BME280;68369;51.050;17.018;2023-04-28T04:30:33;100564.66;;;5.48;66.41
79004;BME280;68369;51.050;17.018;2023-04-28T04:33:22;100563.44;;;5.48;66.31
79004;BME280;68369;51.050;17.018;2023-04-28T04:36:07;100562.89;;;5.49;66.28
79004;BME280;68369;51.050;17.018;2023-04-28T04:38:52;100558.52;;;5.51;66.36
79004;BME280;68369;51.050;17.018;2023-04-28T04:41:40;100565.45;;;5.52;66.17
79004;BME280;68369;51.050;17.018;2023-04-28T04:44:27;100567.69;;;5.53;66.04
79004;BME280;68369;51.050;17.018;2023-04-28T04:47:12;100566.45;;;5.54;66.13
79004;BME280;68369;51.050;17.018;2023-04-28T04:49:57;100563.14;;;5.55;66.05
79004;BME280;68369;51.050;17.018;2023-04-28T04:52:42;100567.80;;;5.56;66.06
79004;BME280;68369;51.050;17.018;2023-04-28T04:55:28;100564.10;;;5.59;66.05
79004;BME280;68369;51.050;17.018;2023-04-28T04:58:13;100562.48;;;5.62;66.24
79004;BME280;68369;51.050;17.018;2023-04-28T05:00:59;100563.25;;;5.68;65.93
79004;BME280;68369;51.050;17.018;2023-04-28T05:03:44;100561.73;;;5.76;66.03
79004;BME280;68369;51.050;17.018;2023-04-28T05:06:29;100563.80;;;5.85;65.86
79004;BME280;68369;51.050;17.018;2023-04-28T05:09:15;100556.70;;;5.95;65.88
79004;BME280;68369;51.050;17.018;2023-04-28T05:12:01;100554.66;;;6.02;65.80
79004;BME280;68369;51.050;17.018;2023-04-28T05:14:46;100559.05;;;6.08;65.78
79004;BME280;68369;51.050;17.018;2023-04-28T05:20:15;100557.38;;;6.14;65.57
79004;BME280;68369;51.050;17.018;2023-04-28T05:23:01;100552.47;;;6.16;65.30
79004;BME280;68369;51.050;17.018;2023-04-28T05:25:46;100553.66;;;6.17;65.37
79004;BME280;68369;51.050;17.018;2023-04-28T05:28:32;100551.52;;;6.19;65.22
79004;BME280;68369;51.050;17.018;2023-04-28T05:31:17;100555.32;;;6.21;65.15
79004;BME280;68369;51.050;17.018;2023-04-28T05:34:02;100557.73;;;6.22;65.14
79004;BME280;68369;51.050;17.018;2023-04-28T05:36:48;100555.10;;;6.23;65.06
79004;BME280;68369;51.050;17.018;2023-04-28T05:39:33;100552.80;;;6.25;65.33
79004;BME280;68369;51.050;17.018;2023-04-28T05:42:18;100552.35;;;6.30;65.28
79004;BME280;68369;51.050;17.018;2023-04-28T05:45:05;100550.77;;;6.39;65.47
79004;BME280;68369;51.050;17.018;2023-04-28T05:47:50;100552.08;;;6.51;65.31
79004;BME280;68369;51.050;17.018;2023-04-28T05:50:36;100553.66;;;6.65;65.06
79004;BME280;68369;51.050;17.018;2023-04-28T05:53:23;100551.12;;;6.78;64.95
79004;BME280;68369;51.050;17.018;2023-04-28T05:56:08;100549.28;;;6.90;64.98
79004;BME280;68369;51.050;17.018;2023-04-28T05:58:53;100550.61;;;7.00;64.50
79004;BME280;68369;51.050;17.018;2023-04-28T06:01:39;100548.52;;;7.07;64.53
79004;BME280;68369;51.050;17.018;2023-04-28T06:04:23;100543.88;;;7.11;64.40
79004;BME280;68369;51.050;17.018;2023-04-28T06:07:10;100546.52;;;7.18;64.56
79004;BME280;68369;51.050;17.018;2023-04-28T06:09:56;100543.25;;;7.24;64.33
79004;BME280;68369;51.050;17.018;2023-04-28T06:15:29;100538.39;;;7.43;64.54
79004;BME280;68369;51.050;17.018;2023-04-28T06:18:15;100533.32;;;7.57;64.13
79004;BME280;68369;51.050;17.018;2023-04-28T06:21:02;100531.17;;;7.73;64.15
79004;BME280;68369;51.050;17.018;2023-04-28T06:23:48;100522.50;;;7.90;64.15
79004;BME280;68369;51.050;17.018;2023-04-28T06:26:33;100522.45;;;8.10;63.48
79004;BME280;68369;51.050;17.018;2023-04-28T06:29:21;100517.77;;;8.27;62.48
79004;BME280;68369;51.050;17.018;2023-04-28T06:32:08;100518.36;;;8.49;62.34
79004;BME280;68369;51.050;17.018;2023-04-28T06:34:53;100518.23;;;8.71;61.69
79004;BME280;68369;51.050;17.018;2023-04-28T06:37:41;100516.38;;;8.96;61.64
79004;BME280;68369;51.050;17.018;2023-04-28T06:40:26;100521.49;;;9.21;60.69
79004;BME280;68369;51.050;17.018;2023-04-28T06:43:11;100521.35;;;9.40;59.96
79004;BME280;68369;51.050;17.018;2023-04-28T06:48:36;100516.89;;;9.74;59.59
79004;BME280;68369;51.050;17.018;2023-04-28T06:51:23;100515.96;;;9.85;59.48
79004;BME280;68369;51.050;17.018;2023-04-28T06:54:10;100511.91;;;9.91;58.86
79004;BME280;68369;51.050;17.018;2023-04-28T06:56:55;100512.42;;;9.96;58.45
79004;BME280;68369;51.050;17.018;2023-04-28T06:59:40;100508.08;;;10.04;58.12
79004;BME280;68369;51.050;17.018;2023-04-28T07:02:27;100505.36;;;10.12;57.65
79004;BME280;68369;51.050;17.018;2023-04-28T07:08:35;100503.25;;;10.45;57.14
79004;BME280;68369;51.050;17.018;2023-04-28T07:14:02;100486.65;;;11.05;55.81
79004;BME280;68369;51.050;17.018;2023-04-28T07:16:48;100485.77;;;11.42;55.22
79004;BME280;68369;51.050;17.018;2023-04-28T07:29:18;100478.18;;;12.75;52.52
79004;BME280;68369;51.050;17.018;2023-04-28T07:34:57;100471.29;;;13.36;51.54
79004;BME280;68369;51.050;17.018;2023-04-28T07:37:42;100469.97;;;13.58;51.18
79004;BME280;68369;51.050;17.018;2023-04-28T07:40:28;100470.34;;;13.71;50.20
79004;BME280;68369;51.050;17.018;2023-04-28T07:46:06;100467.70;;;13.84;48.27
79004;BME280;68369;51.050;17.018;2023-04-28T07:48:53;100462.05;;;13.95;47.82
79004;BME280;68369;51.050;17.018;2023-04-28T07:54:54;100458.70;;;14.33;47.66
79004;BME280;68369;51.050;17.018;2023-04-28T07:57:39;100455.20;;;14.45;46.85
79004;BME280;68369;51.050;17.018;2023-04-28T08:00:26;100455.51;;;14.49;46.20
79004;BME280;68369;51.050;17.018;2023-04-28T08:03:12;100451.77;;;14.53;44.93
79004;BME280;68369;51.050;17.018;2023-04-28T08:05:57;100447.23;;;14.52;43.94
79004;BME280;68369;51.050;17.018;2023-04-28T08:08:44;100448.52;;;14.48;43.95
79004;BME280;68369;51.050;17.018;2023-04-28T08:11:30;100451.72;;;14.48;43.85
79004;BME280;68369;51.050;17.018;2023-04-28T08:17:30;100445.94;;;14.57;43.68
79004;BME280;68369;51.050;17.018;2023-04-28T08:20:49;100440.20;;;14.62;43.75
79004;BME280;68369;51.050;17.018;2023-04-28T08:26:28;100430.45;;;14.81;43.98
79004;BME280;68369;51.050;17.018;2023-04-28T08:29:14;100431.48;;;14.97;44.18
79004;BME280;68369;51.050;17.018;2023-04-28T08:32:00;100426.05;;;15.11;43.29
79004;BME280;68369;51.050;17.018;2023-04-28T08:34:46;100422.23;;;15.25;43.36
79004;BME280;68369;51.050;17.018;2023-04-28T08:37:30;100418.50;;;15.37;42.86
79004;BME280;68369;51.050;17.018;2023-04-28T09:12:00;100391.52;;;19.71;36.22
79004;BME280;68369;51.050;17.018;2023-04-28T09:14:57;100391.27;;;20.27;34.16
79004;BME280;68369;51.050;17.018;2023-04-28T09:17:49;100384.34;;;20.87;32.79
79004;BME280;68369;51.050;17.018;2023-04-28T09:33:30;100365.36;;;21.22;29.29
79004;BME280;68369;51.050;17.018;2023-04-28T09:36:25;100356.29;;;21.03;30.94
79004;BME280;68369;51.050;17.018;2023-04-28T09:42:05;100350.16;;;21.00;30.44
79004;BME280;68369;51.050;17.018;2023-04-28T09:44:54;100348.42;;;21.00;30.09
79004;BME280;68369;51.050;17.018;2023-04-28T09:47:44;100340.83;;;20.72;30.13
79004;BME280;68369;51.050;17.018;2023-04-28T09:53:55;100332.91;;;20.64;31.22
79004;BME280;68369;51.050;17.018;2023-04-28T09:56:45;100333.23;;;20.63;31.78
79004;BME280;68369;51.050;17.018;2023-04-28T09:59:32;100329.69;;;20.58;31.94
79004;BME280;68369;51.050;17.018;2023-04-28T10:42:00;100265.74;;;20.97;31.60
79004;BME280;68369;51.050;17.018;2023-04-28T11:07:23;100233.07;;;21.58;30.16
79004;BME280;68369;51.050;17.018;2023-04-28T11:19:48;100228.34;;;21.65;30.10
79004;BME280;68369;51.050;17.018;2023-04-28T11:29:04;100219.11;;;21.77;28.18
79004;BME280;68369;51.050;17.018;2023-04-28T11:38:01;100202.05;;;21.69;28.11
79004;BME280;68369;51.050;17.018;2023-04-28T11:54:30;100177.08;;;22.46;28.05
79004;BME280;68369;51.050;17.018;2023-04-28T12:10:15;100170.69;;;20.89;26.56
79004;BME280;68369;51.050;17.018;2023-04-28T12:13:15;100167.91;;;20.78;27.89
79004;BME280;68369;51.050;17.018;2023-04-28T12:35:00;100157.35;;;20.06;26.69
79004;BME280;68369;51.050;17.018;2023-04-28T12:40:55;100149.98;;;20.19;27.42
79004;BME280;68369;51.050;17.018;2023-04-28T12:43:41;100149.36;;;20.35;28.17
79004;BME280;68369;51.050;17.018;2023-04-28T12:46:28;100150.65;;;20.49;27.77
79004;BME280;68369;51.050;17.018;2023-04-28T12:49:15;100144.21;;;20.43;27.69
79004;BME280;68369;51.050;17.018;2023-04-28T12:52:02;100143.52;;;20.49;27.08
79004;BME280;68369;51.050;17.018;2023-04-28T12:54:48;100140.92;;;20.60;28.05
79004;BME280;68369;51.050;17.018;2023-04-28T12:57:33;100133.95;;;20.79;27.61
79004;BME280;68369;51.050;17.018;2023-04-28T13:00:23;100132.93;;;20.95;28.13
79004;BME280;68369;51.050;17.018;2023-04-28T13:03:09;100127.33;;;21.10;27.76
79004;BME280;68369;51.050;17.018;2023-04-28T14:13:32;100064.09;;;19.84;27.90
79004;BME280;68369;51.050;17.018;2023-04-28T14:19:32;100056.55;;;19.45;29.22
79004;BME280;68369;51.050;17.018;2023-04-28T14:22:17;100053.66;;;19.32;29.51
79004;BME280;68369;51.050;17.018;2023-04-28T14:38:08;100043.17;;;19.48;30.59
79004;BME280;68369;51.050;17.018;2023-04-28T15:04:06;100007.84;;;21.12;29.47
79004;BME280;68369;51.050;17.018;2023-04-28T15:06:55;100014.20;;;20.80;29.08
79004;BME280;68369;51.050;17.018;2023-04-28T15:19:20;99995.91;;;19.98;28.67
79004;BME280;68369;51.050;17.018;2023-04-28T15:28:03;99992.66;;;19.22;29.64
79004;BME280;68369;51.050;17.018;2023-04-28T15:40:15;99985.11;;;18.53;30.23
79004;BME280;68369;51.050;17.018;2023-04-28T15:49:02;99979.23;;;18.18;31.01
79004;BME280;68369;51.050;17.018;2023-04-28T16:08:06;99970.81;;;17.55;32.45
79004;BME280;68369;51.050;17.018;2023-04-28T16:14:12;99968.46;;;17.40;33.76
79004;BME280;68369;51.050;17.018;2023-04-28T16:16:59;99966.13;;;17.33;34.10
79004;BME280;68369;51.050;17.018;2023-04-28T16:36:29;99955.06;;;17.02;35.88
79004;BME280;68369;51.050;17.018;2023-04-28T16:42:20;99952.60;;;16.92;35.82
79004;BME280;68369;51.050;17.018;2023-04-28T16:45:07;99949.25;;;16.85;36.16
79004;BME280;68369;51.050;17.018;2023-04-28T16:54:06;99947.71;;;16.65;37.39
79004;BME280;68369;51.050;17.018;2023-04-28T16:56:51;99948.06;;;16.60;38.00
79004;BME280;68369;51.050;17.018;2023-04-28T16:59:37;99944.81;;;16.53;37.97
79004;BME280;68369;51.050;17.018;2023-04-28T17:11:40;99939.52;;;16.14;38.12
79004;BME280;68369;51.050;17.018;2023-04-28T17:14:26;99939.89;;;16.06;38.36
79004;BME280;68369;51.050;17.018;2023-04-28T17:17:12;99935.38;;;15.98;38.52
79004;BME280;68369;51.050;17.018;2023-04-28T17:19:58;99940.05;;;15.89;38.76
79004;BME280;68369;51.050;17.018;2023-04-28T17:22:46;99940.13;;;15.81;38.91
79004;BME280;68369;51.050;17.018;2023-04-28T17:28:11;99939.09;;;15.64;38.94
79004;BME280;68369;51.050;17.018;2023-04-28T17:31:18;99942.04;;;15.55;39.35
79004;BME280;68369;51.050;17.018;2023-04-28T17:34:07;99937.74;;;15.49;39.43
79004;BME280;68369;51.050;17.018;2023-04-28T17:39:48;99936.84;;;15.31;40.45
79004;BME280;68369;51.050;17.018;2023-04-28T17:42:34;99935.28;;;15.20;40.69
79004;BME280;68369;51.050;17.018;2023-04-28T17:45:20;99936.82;;;15.10;40.84
79004;BME280;68369;51.050;17.018;2023-04-28T17:48:05;99935.50;;;15.01;41.01
79004;BME280;68369;51.050;17.018;2023-04-28T17:50:51;99933.20;;;14.93;41.27
79004;BME280;68369;51.050;17.018;2023-04-28T17:53:37;99931.33;;;14.87;41.41
79004;BME280;68369;51.050;17.018;2023-04-28T17:56:23;99928.06;;;14.80;41.52
79004;BME280;68369;51.050;17.018;2023-04-28T17:59:08;99928.13;;;14.73;41.69
79004;BME280;68369;51.050;17.018;2023-04-28T18:01:54;99929.00;;;14.68;41.75
79004;BME280;68369;51.050;17.018;2023-04-28T18:17:18;99933.05;;;14.38;42.62
79004;BME280;68369;51.050;17.018;2023-04-28T18:23:20;99931.55;;;14.28;42.88
79004;BME280;68369;51.050;17.018;2023-04-28T18:26:08;99935.22;;;14.24;43.06
79004;BME280;68369;51.050;17.018;2023-04-28T18:28:55;99937.55;;;14.17;43.41
79004;BME280;68369;51.050;17.018;2023-04-28T18:31:42;99935.55;;;14.10;43.59
79004;BME280;68369;51.050;17.018;2023-04-28T18:37:21;99943.63;;;13.99;43.89
79004;BME280;68369;51.050;17.018;2023-04-28T18:42:54;99942.21;;;13.85;44.66
79004;BME280;68369;51.050;17.018;2023-04-28T18:45:40;99942.55;;;13.76;45.04
79004;BME280;68369;51.050;17.018;2023-04-28T18:48:28;99940.08;;;13.65;45.06
79004;BME280;68369;51.050;17.018;2023-04-28T18:51:13;99946.66;;;13.61;45.47
79004;BME280;68369;51.050;17.018;2023-04-28T18:53:59;99948.29;;;13.55;45.74
79004;BME280;68369;51.050;17.018;2023-04-28T18:56:44;99945.88;;;13.48;45.68
79004;BME280;68369;51.050;17.018;2023-04-28T19:05:59;99940.23;;;13.33;46.79
79004;BME280;68369;51.050;17.018;2023-04-28T19:11:52;99940.54;;;13.24;47.64
79004;BME280;68369;51.050;17.018;2023-04-28T19:14:39;99939.27;;;13.20;47.74
79004;BME280;68369;51.050;17.018;2023-04-28T19:23:37;99932.52;;;13.03;48.45
79004;BME280;68369;51.050;17.018;2023-04-28T19:29:40;99933.74;;;12.94;48.91
79004;BME280;68369;51.050;17.018;2023-04-28T19:32:26;99931.55;;;12.90;49.05
79004;BME280;68369;51.050;17.018;2023-04-28T19:44:53;99930.43;;;12.81;49.86
79004;BME280;68369;51.050;17.018;2023-04-28T19:47:39;99931.41;;;12.79;50.19
79004;BME280;68369;51.050;17.018;2023-04-28T19:56:40;99938.00;;;12.75;50.59
79004;BME280;68369;51.050;17.018;2023-04-28T19:59:38;99937.45;;;12.72;50.69
79004;BME280;68369;51.050;17.018;2023-04-28T20:02:24;99939.57;;;12.69;50.72
79004;BME280;68369;51.050;17.018;2023-04-28T20:05:09;99938.20;;;12.65;50.88
79004;BME280;68369;51.050;17.018;2023-04-28T20:07:54;99935.83;;;12.61;51.07
79004;BME280;68369;51.050;17.018;2023-04-28T20:10:41;99938.66;;;12.60;51.49
79004;BME280;68369;51.050;17.018;2023-04-28T20:19:49;99948.19;;;12.53;52.10
79004;BME280;68369;51.050;17.018;2023-04-28T20:25:37;99948.43;;;12.46;52.60
79004;BME280;68369;51.050;17.018;2023-04-28T20:28:22;99945.77;;;12.43;52.82
79004;BME280;68369;51.050;17.018;2023-04-28T20:47:21;99938.36;;;12.18;53.88
79004;BME280;68369;51.050;17.018;2023-04-28T20:50:07;99938.49;;;12.16;54.14
79004;BME280;68369;51.050;17.018;2023-04-28T20:55:48;99931.02;;;12.08;54.83
79004;BME280;68369;51.050;17.018;2023-04-28T21:04:44;99921.38;;;12.02;55.40
79004;BME280;68369;51.050;17.018;2023-04-28T21:10:31;99917.80;;;11.96;55.81
79004;BME280;68369;51.050;17.018;2023-04-28T21:13:17;99920.15;;;11.95;56.42
79004;BME280;68369;51.050;17.018;2023-04-28T21:19:05;99916.68;;;11.88;56.76
79004;BME280;68369;51.050;17.018;2023-04-28T21:21:51;99916.90;;;11.87;56.98
79004;BME280;68369;51.050;17.018;2023-04-28T21:38:18;99908.31;;;11.94;57.34
79004;BME280;68369;51.050;17.018;2023-04-28T21:44:18;99899.27;;;11.95;57.51
79004;BME280;68369;51.050;17.018;2023-04-28T21:57:03;99911.35;;;12.05;57.29
79004;BME280;68369;51.050;17.018;2023-04-28T21:59:48;99908.90;;;12.08;57.37
79004;BME280;68369;51.050;17.018;2023-04-28T22:02:35;99908.66;;;12.13;56.92
79004;BME280;68369;51.050;17.018;2023-04-28T22:33:34;99880.64;;;12.22;57.40
79004;BME280;68369;51.050;17.018;2023-04-28T22:36:22;99878.41;;;12.20;57.35
79004;BME280;68369;51.050;17.018;2023-04-28T23:04:42;99870.73;;;12.07;58.68
79004;BME280;68369;51.050;17.018;2023-04-28T23:07:28;99869.54;;;12.06;58.77
79004;BME280;68369;51.050;17.018;2023-04-28T23:35:39;99858.94;;;11.98;59.14
79004;BME280;68369;51.050;17.018;2023-04-28T23:38:25;99856.35;;;11.97;59.23
79004;BME280;68369;51.050;17.018;2023-04-28T23:53:49;99839.69;;;11.91;59.77
